SCIE

Carriel Sur Airport

Concepcion, Chile
TAF SCIE 192220Z 2000/2024 01010KT 9999 SCT020 BKN080 TX13/2018Z TN10/2011Z BECMG 2001/2003 SCT010 BKN025 BECMG 2003/2005 01010KT 8000 -SHRA BKN020 BKN050 BECMG 2005/2007 01015KT 5000 -RA SCT007 BKN012 BKN025 TEMPO 2010/2015 02020KT 3000 RA SCT005 BKN010 OVC020 BECMG 2017/2019 34010KT 8000 -SHRA SCT010 BKN020 BKN035
Issued Valid From Valid To
Sep-19 @ 22:20 UTC
(2 hours ago)
Sep-20 @ 00:00 UTC
(47 minutes ago)
Sep-21 @ 00:00 UTC
(in 23 hours)
Sep-20 @ 00:00 to Sep-20 @ 01:00
TAF SCIE 192220Z 2000/2024 01010KT 9999 SCT020 BKN080 TX13/2018Z TN10/2011Z
Wind Visibility Clouds
10° at 10 knots 10,000+ meters
  • Scattered at 2,000' AGL
  • Broken at 8,000' AGL
Becoming Sep-20 @ 01:00 to Sep-20 @ 03:00
BECMG 2001/2003 SCT010 BKN025
Wind Visibility Clouds
10° at 10 knots 10,000+ meters
  • Scattered at 1,000' AGL
  • Broken at 2,500' AGL
Becoming Sep-20 @ 03:00 to Sep-20 @ 05:00
BECMG 2003/2005 01010KT 8000 -SHRA BKN020 BKN050
Wind Visibility Clouds Conditions
10° at 10 knots 7,998 meters
  • Broken at 2,000' AGL
  • Broken at 5,000' AGL
  • Light Rain
Becoming Sep-20 @ 05:00 to Sep-20 @ 17:00
BECMG 2005/2007 01015KT 5000 -RA SCT007 BKN012 BKN025
Wind Visibility Clouds Conditions
10° at 15 knots 5,005 meters
  • Scattered at 700' AGL
  • Broken at 1,200' AGL
  • Broken at 2,500' AGL
  • Light Rain
Temporary Sep-20 @ 10:00 to Sep-20 @ 15:00
TEMPO 2010/2015 02020KT 3000 RA SCT005 BKN010 OVC020
Wind Visibility Clouds Conditions
20° at 20 knots 2,993 meters
  • Scattered at 500' AGL
  • Broken at 1,000' AGL
  • Overcast at 2,000' AGL
  • Rain
Becoming Sep-20 @ 17:00 to Sep-21 @ 00:00
BECMG 2017/2019 34010KT 8000 -SHRA SCT010 BKN020 BKN035
Wind Visibility Clouds Conditions
340° at 10 knots 7,998 meters
  • Scattered at 1,000' AGL
  • Broken at 2,000' AGL
  • Broken at 3,500' AGL
  • Light Rain
TAF SCIE 192220Z 2000/2024 01010KT 9999 SCT020 BKN080 TX13/2018Z TN10/2011Z BECMG 2001/2003 SCT010 BKN025 BECMG 2003/2005 01010KT 8000 -SHRA BKN020 BKN050 BECMG 2005/2007 01015KT 5000 -RA SCT007 BKN012 BKN025 TEMPO 2010/2015 02020KT 3000 RA SCT005 BKN010 OVC020 BECMG 2017/2019 34010KT 8000 -SHRA SCT010 BKN020 BKN035
Issued Sep-19 @ 22:20 UTC
(2 hours ago)
Valid From Sep-20 @ 00:00 UTC
(47 minutes ago)
Valid To Sep-21 @ 00:00 UTC
(in 23 hours)
Sep-20 @ 00:00 - Sep-20 @ 01:00
Wind Visibility
10° at 10 knots 10,000+ meters
Clouds
  • Scattered at 2,000' AGL
  • Broken at 8,000' AGL
Becoming Sep-20 @ 01:00 - Sep-20 @ 03:00
Wind Visibility
10° at 10 knots 10,000+ meters
Clouds
  • Scattered at 1,000' AGL
  • Broken at 2,500' AGL
Becoming Sep-20 @ 03:00 - Sep-20 @ 05:00
Wind Visibility
10° at 10 knots 7,998 meters
Clouds
  • Broken at 2,000' AGL
  • Broken at 5,000' AGL
Conditions
  • Light Rain
Becoming Sep-20 @ 05:00 - Sep-20 @ 17:00
Wind Visibility
10° at 15 knots 5,005 meters
Clouds
  • Scattered at 700' AGL
  • Broken at 1,200' AGL
  • Broken at 2,500' AGL
Conditions
  • Light Rain
Temporary Sep-20 @ 10:00 - Sep-20 @ 15:00
Wind Visibility
20° at 20 knots 2,993 meters
Clouds
  • Scattered at 500' AGL
  • Broken at 1,000' AGL
  • Overcast at 2,000' AGL
Conditions
  • Rain
Becoming Sep-20 @ 17:00 - Sep-21 @ 00:00
Wind Visibility
340° at 10 knots 7,998 meters
Clouds
  • Scattered at 1,000' AGL
  • Broken at 2,000' AGL
  • Broken at 3,500' AGL
Conditions
  • Light Rain